sensor_id;sensor_type;location;lat;lon;timestamp;temperature;humidity
57636;DHT22;43465;50.728;4.160;2022-12-29T00:01:22;12.10;99.90
57636;DHT22;43465;50.728;4.160;2022-12-29T00:03:48;12.20;99.90
57636;DHT22;43465;50.728;4.160;2022-12-29T00:06:14;12.20;99.90
57636;DHT22;43465;50.728;4.160;2022-12-29T00:08:39;12.20;99.90
57636;DHT22;43465;50.728;4.160;2022-12-29T00:11:10;12.30;99.90
57636;DHT22;43465;50.728;4.160;2022-12-29T00:13:36;12.30;99.90
57636;DHT22;43465;50.728;4.160;2022-12-29T00:16:20;12.30;99.90
57636;DHT22;43465;50.728;4.160;2022-12-29T00:18:46;12.30;99.90
57636;DHT22;43465;50.728;4.160;2022-12-29T00:21:17;12.30;99.90
57636;DHT22;43465;50.728;4.160;2022-12-29T00:24:01;12.40;99.90
57636;DHT22;43465;50.728;4.160;2022-12-29T00:26:46;12.30;99.90
57636;DHT22;43465;50.728;4.160;2022-12-29T00:29:31;12.30;99.90
57636;DHT22;43465;50.728;4.160;2022-12-29T00:32:15;12.40;99.90
57636;DHT22;43465;50.728;4.160;2022-12-29T00:34:59;12.40;99.90
57636;DHT22;43465;50.728;4.160;2022-12-29T00:37:34;12.40;99.90
57636;DHT22;43465;50.728;4.160;2022-12-29T00:40:18;12.40;99.90
57636;DHT22;43465;50.728;4.160;2022-12-29T00:43:02;12.40;99.90
57636;DHT22;43465;50.728;4.160;2022-12-29T00:45:46;12.40;99.90
57636;DHT22;43465;50.728;4.160;2022-12-29T00:48:12;12.40;99.90
57636;DHT22;43465;50.728;4.160;2022-12-29T00:50:38;12.40;99.90
57636;DHT22;43465;50.728;4.160;2022-12-29T00:53:03;12.40;99.90
57636;DHT22;43465;50.728;4.160;2022-12-29T00:55:29;12.40;99.90
57636;DHT22;43465;50.728;4.160;2022-12-29T00:57:54;12.40;99.90
57636;DHT22;43465;50.728;4.160;2022-12-29T01:00:20;12.30;99.90
57636;DHT22;43465;50.728;4.160;2022-12-29T01:02:46;12.20;99.90
57636;DHT22;43465;50.728;4.160;2022-12-29T01:05:11;12.20;99.90
57636;DHT22;43465;50.728;4.160;2022-12-29T01:07:37;12.10;99.90
57636;DHT22;43465;50.728;4.160;2022-12-29T01:10:03;12.00;99.90
57636;DHT22;43465;50.728;4.160;2022-12-29T01:12:37;11.90;99.90
57636;DHT22;43465;50.728;4.160;2022-12-29T01:15:07;11.80;99.90
57636;DHT22;43465;50.728;4.160;2022-12-29T01:17:33;11.80;99.90
57636;DHT22;43465;50.728;4.160;2022-12-29T01:19:59;11.80;99.90
57636;DHT22;43465;50.728;4.160;2022-12-29T01:22:25;11.70;99.90
57636;DHT22;43465;50.728;4.160;2022-12-29T01:24:50;11.70;99.90
57636;DHT22;43465;50.728;4.160;2022-12-29T01:27:16;11.70;99.90
57636;DHT22;43465;50.728;4.160;2022-12-29T01:29:41;11.70;99.90
57636;DHT22;43465;50.728;4.160;2022-12-29T01:32:07;11.70;99.90
57636;DHT22;43465;50.728;4.160;2022-12-29T01:34:33;11.70;99.90
57636;DHT22;43465;50.728;4.160;2022-12-29T01:36:58;11.70;99.90
57636;DHT22;43465;50.728;4.160;2022-12-29T01:39:24;11.70;99.90
57636;DHT22;43465;50.728;4.160;2022-12-29T01:41:49;11.70;99.90
57636;DHT22;43465;50.728;4.160;2022-12-29T01:44:53;11.60;99.90
57636;DHT22;43465;50.728;4.160;2022-12-29T01:47:50;11.70;99.90
57636;DHT22;43465;50.728;4.160;2022-12-29T01:50:32;11.60;99.90
57636;DHT22;43465;50.728;4.160;2022-12-29T01:53:06;11.60;99.90
57636;DHT22;43465;50.728;4.160;2022-12-29T01:55:38;11.60;99.90
57636;DHT22;43465;50.728;4.160;2022-12-29T01:58:06;11.40;99.90
57636;DHT22;43465;50.728;4.160;2022-12-29T02:00:36;11.30;99.90
57636;DHT22;43465;50.728;4.160;2022-12-29T02:03:02;11.10;99.90
57636;DHT22;43465;50.728;4.160;2022-12-29T02:05:39;11.00;99.90
57636;DHT22;43465;50.728;4.160;2022-12-29T02:08:06;10.90;99.90
57636;DHT22;43465;50.728;4.160;2022-12-29T02:10:33;10.90;99.90
57636;DHT22;43465;50.728;4.160;2022-12-29T02:13:00;10.90;99.90
57636;DHT22;43465;50.728;4.160;2022-12-29T02:15:48;10.90;99.90
57636;DHT22;43465;50.728;4.160;2022-12-29T02:18:42;10.90;99.90
57636;DHT22;43465;50.728;4.160;2022-12-29T02:21:25;10.80;99.90
57636;DHT22;43465;50.728;4.160;2022-12-29T02:29:54;10.90;99.90
57636;DHT22;43465;50.728;4.160;2022-12-29T02:40:55;10.60;99.90
57636;DHT22;43465;50.728;4.160;2022-12-29T02:46:22;10.50;99.90
57636;DHT22;43465;50.728;4.160;2022-12-29T02:49:12;10.40;99.90
57636;DHT22;43465;50.728;4.160;2022-12-29T02:54:06;10.10;99.90
57636;DHT22;43465;50.728;4.160;2022-12-29T02:56:51;10.00;99.90
57636;DHT22;43465;50.728;4.160;2022-12-29T02:59:17;10.00;99.90
57636;DHT22;43465;50.728;4.160;2022-12-29T03:04:53;9.90;99.90
57636;DHT22;43465;50.728;4.160;2022-12-29T03:07:36;10.00;99.90
57636;DHT22;43465;50.728;4.160;2022-12-29T03:18:29;10.20;99.90
57636;DHT22;43465;50.728;4.160;2022-12-29T03:21:05;10.30;99.90
57636;DHT22;43465;50.728;4.160;2022-12-29T03:23:32;10.30;99.90
57636;DHT22;43465;50.728;4.160;2022-12-29T03:26:03;10.40;99.90
57636;DHT22;43465;50.728;4.160;2022-12-29T03:28:39;10.40;99.90
57636;DHT22;43465;50.728;4.160;2022-12-29T03:31:08;10.50;99.90
57636;DHT22;43465;50.728;4.160;2022-12-29T03:33:34;10.60;99.90
57636;DHT22;43465;50.728;4.160;2022-12-29T03:36:04;10.60;99.90
57636;DHT22;43465;50.728;4.160;2022-12-29T03:39:25;10.60;99.90
57636;DHT22;43465;50.728;4.160;2022-12-29T03:41:30;10.50;99.90
57636;DHT22;43465;50.728;4.160;2022-12-29T03:43:56;10.40;99.90
57636;DHT22;43465;50.728;4.160;2022-12-29T03:46:22;10.40;99.90
57636;DHT22;43465;50.728;4.160;2022-12-29T03:48:47;10.40;99.90
57636;DHT22;43465;50.728;4.160;2022-12-29T03:51:13;10.30;99.90
57636;DHT22;43465;50.728;4.160;2022-12-29T03:53:38;10.30;99.90
57636;DHT22;43465;50.728;4.160;2022-12-29T03:56:04;10.30;99.90
57636;DHT22;43465;50.728;4.160;2022-12-29T03:58:30;10.30;99.90
57636;DHT22;43465;50.728;4.160;2022-12-29T04:00:56;10.30;99.90
57636;DHT22;43465;50.728;4.160;2022-12-29T04:03:22;10.20;99.90
57636;DHT22;43465;50.728;4.160;2022-12-29T04:05:48;10.20;99.90
57636;DHT22;43465;50.728;4.160;2022-12-29T04:08:13;10.30;99.90
57636;DHT22;43465;50.728;4.160;2022-12-29T04:10:39;10.30;99.90
57636;DHT22;43465;50.728;4.160;2022-12-29T04:13:05;10.30;99.90
57636;DHT22;43465;50.728;4.160;2022-12-29T04:15:30;10.30;99.90
57636;DHT22;43465;50.728;4.160;2022-12-29T04:17:56;10.30;99.90
57636;DHT22;43465;50.728;4.160;2022-12-29T04:20:21;10.30;99.90
57636;DHT22;43465;50.728;4.160;2022-12-29T04:23:06;10.30;99.90
57636;DHT22;43465;50.728;4.160;2022-12-29T04:25:33;10.40;99.90
57636;DHT22;43465;50.728;4.160;2022-12-29T04:27:59;10.30;99.90
57636;DHT22;43465;50.728;4.160;2022-12-29T04:30:25;10.30;99.90
57636;DHT22;43465;50.728;4.160;2022-12-29T04:32:50;10.40;99.90
57636;DHT22;43465;50.728;4.160;2022-12-29T04:35:16;10.40;99.90
57636;DHT22;43465;50.728;4.160;2022-12-29T04:37:42;10.40;99.90
57636;DHT22;43465;50.728;4.160;2022-12-29T04:40:09;10.40;99.90
57636;DHT22;43465;50.728;4.160;2022-12-29T04:42:35;10.40;99.90
57636;DHT22;43465;50.728;4.160;2022-12-29T04:45:02;10.50;99.90
57636;DHT22;43465;50.728;4.160;2022-12-29T04:47:27;10.50;99.90
57636;DHT22;43465;50.728;4.160;2022-12-29T04:49:53;10.60;99.90
57636;DHT22;43465;50.728;4.160;2022-12-29T04:52:19;10.60;99.90
57636;DHT22;43465;50.728;4.160;2022-12-29T04:54:44;10.70;99.90
57636;DHT22;43465;50.728;4.160;2022-12-29T04:57:10;10.70;99.90
57636;DHT22;43465;50.728;4.160;2022-12-29T04:59:36;10.70;99.90
57636;DHT22;43465;50.728;4.160;2022-12-29T05:02:01;10.70;99.90
57636;DHT22;43465;50.728;4.160;2022-12-29T05:04:27;10.70;99.90
57636;DHT22;43465;50.728;4.160;2022-12-29T05:06:53;10.70;99.90
57636;DHT22;43465;50.728;4.160;2022-12-29T05:09:18;10.80;99.90
57636;DHT22;43465;50.728;4.160;2022-12-29T05:11:44;10.80;99.90
57636;DHT22;43465;50.728;4.160;2022-12-29T05:14:10;10.80;99.90
57636;DHT22;43465;50.728;4.160;2022-12-29T05:16:35;10.80;99.90
57636;DHT22;43465;50.728;4.160;2022-12-29T05:19:04;10.80;99.90
57636;DHT22;43465;50.728;4.160;2022-12-29T05:21:29;10.80;99.90
57636;DHT22;43465;50.728;4.160;2022-12-29T05:23:55;10.80;99.90
57636;DHT22;43465;50.728;4.160;2022-12-29T05:26:21;10.80;99.90
57636;DHT22;43465;50.728;4.160;2022-12-29T05:28:46;10.90;99.90
57636;DHT22;43465;50.728;4.160;2022-12-29T05:31:12;10.90;99.90
57636;DHT22;43465;50.728;4.160;2022-12-29T05:33:38;10.90;99.90
57636;DHT22;43465;50.728;4.160;2022-12-29T05:36:05;10.90;99.90
57636;DHT22;43465;50.728;4.160;2022-12-29T05:38:30;10.90;99.90
57636;DHT22;43465;50.728;4.160;2022-12-29T05:40:56;10.80;99.90
57636;DHT22;43465;50.728;4.160;2022-12-29T05:43:22;10.80;99.90
57636;DHT22;43465;50.728;4.160;2022-12-29T05:45:51;10.70;99.90
57636;DHT22;43465;50.728;4.160;2022-12-29T05:48:17;10.70;99.90
57636;DHT22;43465;50.728;4.160;2022-12-29T05:50:42;10.70;99.90
57636;DHT22;43465;50.728;4.160;2022-12-29T05:53:08;10.70;99.90
57636;DHT22;43465;50.728;4.160;2022-12-29T05:55:34;10.70;99.90
57636;DHT22;43465;50.728;4.160;2022-12-29T05:58:00;10.70;99.90
57636;DHT22;43465;50.728;4.160;2022-12-29T06:00:25;10.70;99.90
57636;DHT22;43465;50.728;4.160;2022-12-29T06:02:51;10.60;99.90
57636;DHT22;43465;50.728;4.160;2022-12-29T06:05:17;10.60;99.90
57636;DHT22;43465;50.728;4.160;2022-12-29T06:07:42;10.60;99.90
57636;DHT22;43465;50.728;4.160;2022-12-29T06:10:10;10.60;99.90
57636;DHT22;43465;50.728;4.160;2022-12-29T06:12:35;10.60;99.90
57636;DHT22;43465;50.728;4.160;2022-12-29T06:15:01;10.60;99.90
57636;DHT22;43465;50.728;4.160;2022-12-29T06:17:27;10.70;99.90
57636;DHT22;43465;50.728;4.160;2022-12-29T06:19:52;10.60;99.90
57636;DHT22;43465;50.728;4.160;2022-12-29T06:22:18;10.70;99.90
57636;DHT22;43465;50.728;4.160;2022-12-29T06:24:43;10.70;99.90
57636;DHT22;43465;50.728;4.160;2022-12-29T06:27:09;10.60;99.90
57636;DHT22;43465;50.728;4.160;2022-12-29T06:29:35;10.80;99.90
57636;DHT22;43465;50.728;4.160;2022-12-29T06:32:02;10.80;99.90
57636;DHT22;43465;50.728;4.160;2022-12-29T06:34:28;10.90;99.90
57636;DHT22;43465;50.728;4.160;2022-12-29T06:36:54;10.90;99.90
57636;DHT22;43465;50.728;4.160;2022-12-29T06:39:20;10.90;99.90
57636;DHT22;43465;50.728;4.160;2022-12-29T06:41:45;11.00;99.90
57636;DHT22;43465;50.728;4.160;2022-12-29T06:44:11;10.90;99.90
57636;DHT22;43465;50.728;4.160;2022-12-29T06:46:37;10.90;99.90
57636;DHT22;43465;50.728;4.160;2022-12-29T06:49:02;10.90;99.90
57636;DHT22;43465;50.728;4.160;2022-12-29T06:51:28;10.90;99.90
57636;DHT22;43465;50.728;4.160;2022-12-29T06:53:53;10.90;99.90
57636;DHT22;43465;50.728;4.160;2022-12-29T06:56:19;10.90;99.90
57636;DHT22;43465;50.728;4.160;2022-12-29T06:58:45;10.90;99.90
57636;DHT22;43465;50.728;4.160;2022-12-29T07:01:10;10.90;99.90
57636;DHT22;43465;50.728;4.160;2022-12-29T07:03:36;10.90;99.90
57636;DHT22;43465;50.728;4.160;2022-12-29T07:06:02;10.90;99.90
57636;DHT22;43465;50.728;4.160;2022-12-29T07:08:27;10.90;99.90
57636;DHT22;43465;50.728;4.160;2022-12-29T07:10:53;10.90;99.90
57636;DHT22;43465;50.728;4.160;2022-12-29T07:13:19;10.90;99.90
57636;DHT22;43465;50.728;4.160;2022-12-29T07:15:44;11.00;99.90
57636;DHT22;43465;50.728;4.160;2022-12-29T07:18:10;11.00;99.90
57636;DHT22;43465;50.728;4.160;2022-12-29T07:20:36;11.00;99.90
57636;DHT22;43465;50.728;4.160;2022-12-29T07:23:02;11.00;99.90
57636;DHT22;43465;50.728;4.160;2022-12-29T07:25:27;11.00;99.90
57636;DHT22;43465;50.728;4.160;2022-12-29T07:27:54;10.90;99.90
57636;DHT22;43465;50.728;4.160;2022-12-29T07:30:20;10.90;99.90
57636;DHT22;43465;50.728;4.160;2022-12-29T07:32:46;10.90;99.90
57636;DHT22;43465;50.728;4.160;2022-12-29T07:35:11;10.90;99.90
57636;DHT22;43465;50.728;4.160;2022-12-29T07:37:37;10.90;99.90
57636;DHT22;43465;50.728;4.160;2022-12-29T07:40:03;10.90;99.90
57636;DHT22;43465;50.728;4.160;2022-12-29T07:42:30;11.00;99.90
57636;DHT22;43465;50.728;4.160;2022-12-29T07:44:56;11.00;99.90
57636;DHT22;43465;50.728;4.160;2022-12-29T07:47:22;11.00;99.90
57636;DHT22;43465;50.728;4.160;2022-12-29T07:49:47;11.00;99.90
57636;DHT22;43465;50.728;4.160;2022-12-29T07:52:13;11.00;99.90
57636;DHT22;43465;50.728;4.160;2022-12-29T07:54:38;10.90;99.90
57636;DHT22;43465;50.728;4.160;2022-12-29T07:57:05;10.90;99.90
57636;DHT22;43465;50.728;4.160;2022-12-29T07:59:31;10.90;99.90
57636;DHT22;43465;50.728;4.160;2022-12-29T08:01:57;10.80;99.90
57636;DHT22;43465;50.728;4.160;2022-12-29T08:04:22;10.90;99.90
57636;DHT22;43465;50.728;4.160;2022-12-29T08:06:48;10.90;99.90
57636;DHT22;43465;50.728;4.160;2022-12-29T08:09:14;10.90;99.90
57636;DHT22;43465;50.728;4.160;2022-12-29T08:11:39;10.90;99.90
57636;DHT22;43465;50.728;4.160;2022-12-29T08:14:06;10.90;99.90
57636;DHT22;43465;50.728;4.160;2022-12-29T08:16:31;10.90;99.90
57636;DHT22;43465;50.728;4.160;2022-12-29T08:18:57;10.90;99.90
57636;DHT22;43465;50.728;4.160;2022-12-29T08:21:24;10.90;99.90
57636;DHT22;43465;50.728;4.160;2022-12-29T08:23:50;10.90;99.90
57636;DHT22;43465;50.728;4.160;2022-12-29T08:26:16;10.90;99.90
57636;DHT22;43465;50.728;4.160;2022-12-29T08:28:41;10.90;99.90
57636;DHT22;43465;50.728;4.160;2022-12-29T08:31:07;10.80;99.90
57636;DHT22;43465;50.728;4.160;2022-12-29T08:33:36;10.60;99.90
57636;DHT22;43465;50.728;4.160;2022-12-29T08:36:06;10.50;99.90
57636;DHT22;43465;50.728;4.160;2022-12-29T08:38:32;10.40;99.90
57636;DHT22;43465;50.728;4.160;2022-12-29T08:40:58;10.30;99.90
57636;DHT22;43465;50.728;4.160;2022-12-29T08:43:25;10.30;99.90
57636;DHT22;43465;50.728;4.160;2022-12-29T08:45:50;10.30;99.90
57636;DHT22;43465;50.728;4.160;2022-12-29T08:48:16;10.20;99.90
57636;DHT22;43465;50.728;4.160;2022-12-29T08:50:47;10.20;99.90
57636;DHT22;43465;50.728;4.160;2022-12-29T08:53:13;10.20;99.90
57636;DHT22;43465;50.728;4.160;2022-12-29T08:55:39;10.30;99.90
57636;DHT22;43465;50.728;4.160;2022-12-29T08:58:05;10.20;99.90
57636;DHT22;43465;50.728;4.160;2022-12-29T09:00:31;10.20;99.90
57636;DHT22;43465;50.728;4.160;2022-12-29T09:02:56;10.20;99.90
57636;DHT22;43465;50.728;4.160;2022-12-29T09:05:22;10.20;99.90
57636;DHT22;43465;50.728;4.160;2022-12-29T09:07:48;10.20;99.90
57636;DHT22;43465;50.728;4.160;2022-12-29T09:10:13;10.20;99.90
57636;DHT22;43465;50.728;4.160;2022-12-29T09:12:39;10.20;99.90
57636;DHT22;43465;50.728;4.160;2022-12-29T09:15:06;10.20;99.90
57636;DHT22;43465;50.728;4.160;2022-12-29T09:17:32;10.30;99.90
57636;DHT22;43465;50.728;4.160;2022-12-29T09:20:07;10.30;99.90
57636;DHT22;43465;50.728;4.160;2022-12-29T09:22:34;10.30;99.90
57636;DHT22;43465;50.728;4.160;2022-12-29T09:25:00;10.30;99.90
57636;DHT22;43465;50.728;4.160;2022-12-29T09:27:25;10.30;99.90
57636;DHT22;43465;50.728;4.160;2022-12-29T09:29:51;10.30;99.90
57636;DHT22;43465;50.728;4.160;2022-12-29T09:32:17;10.30;99.90
57636;DHT22;43465;50.728;4.160;2022-12-29T09:34:42;10.30;99.90
57636;DHT22;43465;50.728;4.160;2022-12-29T09:37:08;10.30;99.90
57636;DHT22;43465;50.728;4.160;2022-12-29T09:39:33;10.40;99.90
57636;DHT22;43465;50.728;4.160;2022-12-29T09:45:18;10.20;99.90
57636;DHT22;43465;50.728;4.160;2022-12-29T09:47:46;10.20;99.90
57636;DHT22;43465;50.728;4.160;2022-12-29T09:53:15;10.30;99.90
57636;DHT22;43465;50.728;4.160;2022-12-29T09:55:50;10.20;99.90
57636;DHT22;43465;50.728;4.160;2022-12-29T10:03:51;10.20;99.90
57636;DHT22;43465;50.728;4.160;2022-12-29T10:06:42;10.30;99.90
57636;DHT22;43465;50.728;4.160;2022-12-29T10:09:23;10.30;99.90
57636;DHT22;43465;50.728;4.160;2022-12-29T10:20:02;10.40;99.90
57636;DHT22;43465;50.728;4.160;2022-12-29T10:25:16;10.40;99.90
57636;DHT22;43465;50.728;4.160;2022-12-29T10:27:48;10.50;99.90
57636;DHT22;43465;50.728;4.160;2022-12-29T10:30:14;10.50;99.90
57636;DHT22;43465;50.728;4.160;2022-12-29T10:32:50;10.70;99.90
57636;DHT22;43465;50.728;4.160;2022-12-29T10:35:24;10.90;99.90
57636;DHT22;43465;50.728;4.160;2022-12-29T10:38:13;11.10;99.90
57636;DHT22;43465;50.728;4.160;2022-12-29T10:40:48;11.20;99.90
57636;DHT22;43465;50.728;4.160;2022-12-29T10:43:51;11.30;99.90
57636;DHT22;43465;50.728;4.160;2022-12-29T10:46:25;11.30;99.90
57636;DHT22;43465;50.728;4.160;2022-12-29T10:48:52;11.30;99.90
57636;DHT22;43465;50.728;4.160;2022-12-29T10:51:39;11.40;99.90
57636;DHT22;43465;50.728;4.160;2022-12-29T10:54:14;11.40;99.90
57636;DHT22;43465;50.728;4.160;2022-12-29T10:56:52;11.40;99.90
57636;DHT22;43465;50.728;4.160;2022-12-29T10:59:30;11.40;99.90
57636;DHT22;43465;50.728;4.160;2022-12-29T11:04:55;11.30;99.90
57636;DHT22;43465;50.728;4.160;2022-12-29T11:07:22;11.40;99.90
57636;DHT22;43465;50.728;4.160;2022-12-29T11:09:49;11.30;99.90
57636;DHT22;43465;50.728;4.160;2022-12-29T11:12:24;11.30;99.90
57636;DHT22;43465;50.728;4.160;2022-12-29T11:15:16;11.30;99.90
57636;DHT22;43465;50.728;4.160;2022-12-29T11:17:51;11.30;99.90
57636;DHT22;43465;50.728;4.160;2022-12-29T11:20:36;11.20;99.90
57636;DHT22;43465;50.728;4.160;2022-12-29T11:23:04;11.20;99.90
57636;DHT22;43465;50.728;4.160;2022-12-29T11:25:30;11.20;99.90
57636;DHT22;43465;50.728;4.160;2022-12-29T11:28:02;11.10;99.90
57636;DHT22;43465;50.728;4.160;2022-12-29T11:30:31;11.20;99.90
57636;DHT22;43465;50.728;4.160;2022-12-29T11:32:57;11.10;99.90
57636;DHT22;43465;50.728;4.160;2022-12-29T11:35:36;11.10;99.90
57636;DHT22;43465;50.728;4.160;2022-12-29T11:38:04;11.10;99.90
57636;DHT22;43465;50.728;4.160;2022-12-29T11:40:31;11.10;99.90
57636;DHT22;43465;50.728;4.160;2022-12-29T11:43:00;11.10;99.90
57636;DHT22;43465;50.728;4.160;2022-12-29T11:45:34;11.10;99.90
57636;DHT22;43465;50.728;4.160;2022-12-29T11:48:09;11.10;99.90
57636;DHT22;43465;50.728;4.160;2022-12-29T11:50:40;11.10;99.90
57636;DHT22;43465;50.728;4.160;2022-12-29T11:56:05;11.10;99.90
57636;DHT22;43465;50.728;4.160;2022-12-29T11:58:33;11.10;99.90
57636;DHT22;43465;50.728;4.160;2022-12-29T12:03:32;11.10;99.90
57636;DHT22;43465;50.728;4.160;2022-12-29T12:06:03;11.10;99.90
57636;DHT22;43465;50.728;4.160;2022-12-29T12:08:37;11.20;99.90
57636;DHT22;43465;50.728;4.160;2022-12-29T12:11:25;11.20;99.90
57636;DHT22;43465;50.728;4.160;2022-12-29T12:16:46;11.10;99.90
57636;DHT22;43465;50.728;4.160;2022-12-29T12:19:40;11.20;99.90
57636;DHT22;43465;50.728;4.160;2022-12-29T12:22:15;11.20;99.90
57636;DHT22;43465;50.728;4.160;2022-12-29T12:24:54;11.20;99.90
57636;DHT22;43465;50.728;4.160;2022-12-29T12:27:28;11.20;99.90
57636;DHT22;43465;50.728;4.160;2022-12-29T12:30:05;11.20;99.90
57636;DHT22;43465;50.728;4.160;2022-12-29T12:32:52;11.30;99.90
57636;DHT22;43465;50.728;4.160;2022-12-29T12:35:47;11.30;99.90
57636;DHT22;43465;50.728;4.160;2022-12-29T12:38:31;11.30;99.90
57636;DHT22;43465;50.728;4.160;2022-12-29T12:41:31;11.30;99.90
57636;DHT22;43465;50.728;4.160;2022-12-29T12:46:53;11.30;99.90
57636;DHT22;43465;50.728;4.160;2022-12-29T12:52:33;11.20;99.90
57636;DHT22;43465;50.728;4.160;2022-12-29T13:00:17;11.00;99.90
57636;DHT22;43465;50.728;4.160;2022-12-29T13:03:10;11.00;99.90
57636;DHT22;43465;50.728;4.160;2022-12-29T13:14:05;10.80;99.90
57636;DHT22;43465;50.728;4.160;2022-12-29T13:16:53;10.70;99.90
57636;DHT22;43465;50.728;4.160;2022-12-29T13:28:25;11.00;99.90
57636;DHT22;43465;50.728;4.160;2022-12-29T13:36:37;11.00;99.90
57636;DHT22;43465;50.728;4.160;2022-12-29T13:39:21;11.10;99.90
57636;DHT22;43465;50.728;4.160;2022-12-29T13:41:49;11.10;99.90
57636;DHT22;43465;50.728;4.160;2022-12-29T13:44:20;11.10;99.90
57636;DHT22;43465;50.728;4.160;2022-12-29T13:46:47;11.20;99.90
57636;DHT22;43465;50.728;4.160;2022-12-29T13:49:22;11.20;99.90
57636;DHT22;43465;50.728;4.160;2022-12-29T14:00:26;11.30;99.90
57636;DHT22;43465;50.728;4.160;2022-12-29T14:03:27;11.30;99.90
57636;DHT22;43465;50.728;4.160;2022-12-29T14:08:38;11.20;99.90
57636;DHT22;43465;50.728;4.160;2022-12-29T14:11:11;11.20;99.90
57636;DHT22;43465;50.728;4.160;2022-12-29T14:13:39;11.20;99.90
57636;DHT22;43465;50.728;4.160;2022-12-29T14:16:06;11.20;99.90
57636;DHT22;43465;50.728;4.160;2022-12-29T14:18:34;11.20;99.90
57636;DHT22;43465;50.728;4.160;2022-12-29T14:23:45;11.20;99.90
57636;DHT22;43465;50.728;4.160;2022-12-29T14:26:14;11.20;99.90
57636;DHT22;43465;50.728;4.160;2022-12-29T14:28:44;11.20;99.90
57636;DHT22;43465;50.728;4.160;2022-12-29T14:42:05;11.10;99.90
57636;DHT22;43465;50.728;4.160;2022-12-29T14:44:32;11.00;99.90
57636;DHT22;43465;50.728;4.160;2022-12-29T14:47:05;10.90;99.90
57636;DHT22;43465;50.728;4.160;2022-12-29T14:49:42;10.90;99.90
57636;DHT22;43465;50.728;4.160;2022-12-29T14:52:14;10.80;99.90
57636;DHT22;43465;50.728;4.160;2022-12-29T15:00:36;10.80;99.90
57636;DHT22;43465;50.728;4.160;2022-12-29T15:03:06;10.70;99.90
57636;DHT22;43465;50.728;4.160;2022-12-29T15:05:58;10.70;99.90
57636;DHT22;43465;50.728;4.160;2022-12-29T15:08:26;10.30;99.90
57636;DHT22;43465;50.728;4.160;2022-12-29T15:13:52;9.90;99.90
57636;DHT22;43465;50.728;4.160;2022-12-29T15:16:23;9.80;99.90
57636;DHT22;43465;50.728;4.160;2022-12-29T15:18:49;9.70;99.90
57636;DHT22;43465;50.728;4.160;2022-12-29T15:21:16;9.80;99.90
57636;DHT22;43465;50.728;4.160;2022-12-29T15:23:45;9.70;99.90
57636;DHT22;43465;50.728;4.160;2022-12-29T15:26:11;9.70;99.90
57636;DHT22;43465;50.728;4.160;2022-12-29T15:28:43;9.70;99.90
57636;DHT22;43465;50.728;4.160;2022-12-29T15:33:41;9.70;99.90
57636;DHT22;43465;50.728;4.160;2022-12-29T15:36:19;9.80;99.90
57636;DHT22;43465;50.728;4.160;2022-12-29T15:38:45;9.80;99.90
57636;DHT22;43465;50.728;4.160;2022-12-29T15:41:39;9.90;99.90
57636;DHT22;43465;50.728;4.160;2022-12-29T15:44:45;9.90;99.90
57636;DHT22;43465;50.728;4.160;2022-12-29T15:47:25;10.00;99.90
57636;DHT22;43465;50.728;4.160;2022-12-29T15:50:02;10.00;99.90
57636;DHT22;43465;50.728;4.160;2022-12-29T15:52:29;9.90;99.90
57636;DHT22;43465;50.728;4.160;2022-12-29T15:54:58;9.90;99.90
57636;DHT22;43465;50.728;4.160;2022-12-29T15:57:41;10.00;99.90
57636;DHT22;43465;50.728;4.160;2022-12-29T16:00:23;9.90;99.90
57636;DHT22;43465;50.728;4.160;2022-12-29T16:02:51;9.90;99.90
57636;DHT22;43465;50.728;4.160;2022-12-29T16:05:17;9.80;99.90
57636;DHT22;43465;50.728;4.160;2022-12-29T16:07:58;9.80;99.90
57636;DHT22;43465;50.728;4.160;2022-12-29T16:10:35;9.70;99.90
57636;DHT22;43465;50.728;4.160;2022-12-29T16:15:37;9.80;99.90
57636;DHT22;43465;50.728;4.160;2022-12-29T16:18:02;9.80;99.90
57636;DHT22;43465;50.728;4.160;2022-12-29T16:20:39;9.80;99.90
57636;DHT22;43465;50.728;4.160;2022-12-29T16:23:21;9.70;99.90
57636;DHT22;43465;50.728;4.160;2022-12-29T16:25:47;9.70;99.90
57636;DHT22;43465;50.728;4.160;2022-12-29T16:28:24;9.70;99.90
57636;DHT22;43465;50.728;4.160;2022-12-29T16:31:04;9.70;99.90
57636;DHT22;43465;50.728;4.160;2022-12-29T16:33:51;9.70;99.90
57636;DHT22;43465;50.728;4.160;2022-12-29T16:36:51;9.70;99.90
57636;DHT22;43465;50.728;4.160;2022-12-29T16:39:21;9.70;99.90
57636;DHT22;43465;50.728;4.160;2022-12-29T16:41:50;9.80;99.90
57636;DHT22;43465;50.728;4.160;2022-12-29T16:44:19;9.80;99.90
57636;DHT22;43465;50.728;4.160;2022-12-29T16:49:38;9.70;99.90
57636;DHT22;43465;50.728;4.160;2022-12-29T16:52:16;9.70;99.90
57636;DHT22;43465;50.728;4.160;2022-12-29T16:54:58;9.60;99.90
57636;DHT22;43465;50.728;4.160;2022-12-29T16:57:30;9.60;99.90
57636;DHT22;43465;50.728;4.160;2022-12-29T17:00:00;9.50;99.90
57636;DHT22;43465;50.728;4.160;2022-12-29T17:02:28;9.50;99.90
57636;DHT22;43465;50.728;4.160;2022-12-29T17:04:55;9.50;99.90
57636;DHT22;43465;50.728;4.160;2022-12-29T17:07:23;9.50;99.90
57636;DHT22;43465;50.728;4.160;2022-12-29T17:09:48;9.50;99.90
57636;DHT22;43465;50.728;4.160;2022-12-29T17:12:18;9.50;99.90
57636;DHT22;43465;50.728;4.160;2022-12-29T17:17:15;9.50;99.90
57636;DHT22;43465;50.728;4.160;2022-12-29T17:19:47;9.50;99.90
57636;DHT22;43465;50.728;4.160;2022-12-29T17:22:29;9.50;99.90
57636;DHT22;43465;50.728;4.160;2022-12-29T17:24:57;9.50;99.90
57636;DHT22;43465;50.728;4.160;2022-12-29T17:29:56;9.50;99.90
57636;DHT22;43465;50.728;4.160;2022-12-29T17:32:22;9.50;99.90
57636;DHT22;43465;50.728;4.160;2022-12-29T17:34:48;9.50;99.90
57636;DHT22;43465;50.728;4.160;2022-12-29T17:39:49;9.40;99.90
57636;DHT22;43465;50.728;4.160;2022-12-29T17:42:14;9.30;99.90
57636;DHT22;43465;50.728;4.160;2022-12-29T17:44:41;9.20;99.90
57636;DHT22;43465;50.728;4.160;2022-12-29T17:47:10;9.20;99.90
57636;DHT22;43465;50.728;4.160;2022-12-29T17:49:36;9.10;99.90
57636;DHT22;43465;50.728;4.160;2022-12-29T17:52:03;9.00;99.90
57636;DHT22;43465;50.728;4.160;2022-12-29T17:54:30;9.00;99.90
57636;DHT22;43465;50.728;4.160;2022-12-29T17:56:56;8.90;99.90
57636;DHT22;43465;50.728;4.160;2022-12-29T17:59:22;8.90;99.90
57636;DHT22;43465;50.728;4.160;2022-12-29T18:01:48;8.80;99.90
57636;DHT22;43465;50.728;4.160;2022-12-29T18:04:19;8.70;99.90
57636;DHT22;43465;50.728;4.160;2022-12-29T18:06:45;8.70;99.90
57636;DHT22;43465;50.728;4.160;2022-12-29T18:09:12;8.70;99.90
57636;DHT22;43465;50.728;4.160;2022-12-29T18:11:42;8.70;99.90
57636;DHT22;43465;50.728;4.160;2022-12-29T18:14:15;8.70;99.90
57636;DHT22;43465;50.728;4.160;2022-12-29T18:16:41;8.70;99.90
57636;DHT22;43465;50.728;4.160;2022-12-29T18:19:07;8.80;99.90
57636;DHT22;43465;50.728;4.160;2022-12-29T18:21:34;8.80;99.90